Time;durP1;ratioP1;P1;durP2;ratioP2;P2;SDS_P1;SDS_P2;PMS_P1;PMS_P2;Temp;Humidity;BMP_temperature;BMP_pressure;BME280_temperature;BME280_humidity;BME280_pressure;Samples;Min_cycle;Max_cycle;Signal;HPM_P1;HPM_P2
2022/02/04 00:06:54;;;;;;;14.20;8.40;;;;;;;-5.08;83.53;141044.86;1756404;82;21049;-58
2022/02/04 00:25:28;;;;;;;19.32;8.10;;;;;;;-5.16;84.66;141025.08;1756358;82;21457;-59
2022/02/04 00:27:48;;;;;;;18.50;8.75;;;;;;;-5.19;84.72;141017.66;1755049;82;21014;-59
2022/02/04 00:30:29;;;;;;;16.40;8.33;;;;;;;-5.21;84.80;141011.47;1768055;80;21040;-60
2022/02/04 00:32:45;;;;;;;17.55;8.63;;;;;;;-5.15;84.94;141027.53;1782532;80;21022;-59
2022/02/04 00:35:28;;;;;;;15.05;8.35;;;;;;;-5.12;84.92;141034.94;1787317;80;21491;-59
2022/02/04 00:37:56;;;;;;;20.37;8.75;;;;;;;-5.08;84.82;141044.86;1783750;80;21458;-59
2022/02/04 00:40:16;;;;;;;19.65;8.75;;;;;;;-5.05;84.70;141051.05;1781574;80;21027;-59
2022/02/04 00:42:39;;;;;;;16.07;7.97;;;;;;;-5.09;84.73;141042.41;1786808;80;20971;-58
2022/02/04 00:45:49;;;;;;;14.73;7.50;;;;;;;-5.08;84.71;141044.86;1793474;80;20999;-59
2022/02/04 00:47:47;;;;;;;15.32;7.85;;;;;;;-5.10;84.68;141039.91;1767052;80;21010;-58
2022/02/04 00:50:23;;;;;;;15.60;8.20;;;;;;;-5.13;84.79;141031.25;1791520;80;21000;-59
2022/02/04 00:52:48;;;;;;;19.05;8.73;;;;;;;-5.10;84.82;141038.67;1793914;80;21011;-58
2022/02/04 00:55:39;;;;;;;15.48;7.87;;;;;;;-5.07;84.76;141047.31;1769805;80;21030;-60
2022/02/04 01:27:27;;;;;;;14.80;7.25;;;;;;;-5.23;84.99;141007.75;1796236;80;21516;-59
2022/02/04 01:30:03;;;;;;;12.65;7.08;;;;;;;-5.24;84.81;141005.30;1773917;80;20983;-59
2022/02/04 01:32:23;;;;;;;13.75;6.72;;;;;;;-5.27;84.57;140999.06;1763270;81;21456;-59
2022/02/04 01:34:51;;;;;;;14.73;7.37;;;;;;;-5.24;84.45;141005.30;1790050;80;21116;-60
2022/02/04 01:37:18;;;;;;;13.05;7.22;;;;;;;-5.23;84.22;141007.75;1795990;80;21026;-61
2022/02/04 01:39:45;;;;;;;15.28;7.53;;;;;;;-5.20;84.20;141013.94;1773935;79;20994;-61
2022/02/04 01:42:12;;;;;;;16.85;7.62;;;;;;;-5.13;84.09;141032.48;1764655;81;21030;-60
2022/02/04 01:44:39;;;;;;;14.70;6.87;;;;;;;-4.99;83.90;141065.88;1761177;81;21021;-61
2022/02/04 01:47:06;;;;;;;14.18;7.62;;;;;;;-4.85;83.18;141099.30;1765478;80;20979;-58
2022/02/04 01:49:34;;;;;;;11.55;6.83;;;;;;;-4.71;82.85;141133.92;1776533;80;21047;-60
2022/02/04 01:52:03;;;;;;;13.10;7.22;;;;;;;-4.64;82.16;141151.25;1787207;80;21040;-62
2022/02/04 01:54:31;;;;;;;14.07;6.30;;;;;;;-4.57;81.78;141166.14;1787400;80;21124;-60
2022/02/04 01:56:58;;;;;;;13.25;6.28;;;;;;;-4.55;81.01;141171.05;1769565;80;20987;-61
2022/02/04 01:59:25;;;;;;;12.50;6.17;;;;;;;-4.59;80.47;141163.63;1773698;80;21026;-60
2022/02/04 02:01:51;;;;;;;16.80;7.42;;;;;;;-4.65;80.10;141147.58;1787432;80;21003;-61
2022/02/04 02:04:19;;;;;;;15.85;7.30;;;;;;;-4.74;80.04;141126.50;1775057;80;21014;-59
2022/02/04 02:06:57;;;;;;;13.30;6.05;;;;;;;-4.81;80.00;141109.17;1756337;82;21011;-61
2022/02/04 02:09:32;;;;;;;15.35;6.97;;;;;;;-4.85;79.72;141099.30;1772934;80;21003;-61
2022/02/04 02:11:57;;;;;;;14.00;6.95;;;;;;;-4.90;79.74;141086.94;1786559;80;20976;-60
2022/02/04 02:14:25;;;;;;;15.65;7.05;;;;;;;-4.93;79.87;141080.75;1787345;80;20983;-60
2022/02/04 02:42:06;;;;;;;15.13;8.55;;;;;;;-4.74;80.46;141126.50;1762023;80;21043;-57
2022/02/04 02:54:15;;;;;;;15.18;7.92;;;;;;;-5.42;81.36;140960.73;1777087;81;21556;-56
2022/02/04 02:59:09;;;;;;;16.02;7.12;;;;;;;-5.58;82.27;140923.64;1765485;81;21021;-56
2022/02/04 03:01:33;;;;;;;15.88;8.58;;;;;;;-5.65;82.67;140906.31;1763593;81;21002;-56
2022/02/04 03:04:06;;;;;;;15.63;7.33;;;;;;;-5.70;83.07;140893.95;1774607;79;20982;-57
2022/02/04 03:06:30;;;;;;;14.43;7.92;;;;;;;-5.76;83.46;140879.14;1777180;80;20975;-56
2022/02/04 03:08:57;;;;;;;14.23;8.35;;;;;;;-5.81;83.85;140866.78;1765234;81;21517;-56
2022/02/04 03:11:23;;;;;;;12.70;7.15;;;;;;;-5.86;84.39;140854.41;1748870;81;20971;-57
2022/02/04 03:13:50;;;;;;;14.05;6.72;;;;;;;-5.87;84.80;140851.97;1746878;81;20978;-57
2022/02/04 03:16:18;;;;;;;13.45;7.08;;;;;;;-5.93;85.18;140839.59;1746822;82;20982;-59
2022/02/04 03:18:49;;;;;;;17.32;7.75;;;;;;;-5.98;85.54;140827.28;1763352;81;20974;-59
2022/02/04 03:21:18;;;;;;;12.78;7.47;;;;;;;-6.03;85.95;140814.92;1746481;82;20974;-58
2022/02/04 03:23:50;;;;;;;12.43;6.97;;;;;;;-6.05;86.41;140809.97;1769047;81;21493;-59
2022/02/04 03:26:26;;;;;;;13.53;6.80;;;;;;;-6.11;86.88;140795.11;1776838;81;20994;-58
2022/02/04 03:28:41;;;;;;;13.05;6.78;;;;;;;-6.18;87.25;140779.08;1767149;81;20994;-58
2022/02/04 03:31:08;;;;;;;14.50;6.08;;;;;;;-6.18;87.82;140777.81;1746750;81;20979;-58
2022/02/04 03:33:36;;;;;;;13.22;7.12;;;;;;;-6.23;88.36;140765.44;1763302;79;21469;-59
2022/02/04 03:36:03;;;;;;;12.63;5.72;;;;;;;-6.26;88.56;140758.05;1774569;81;20950;-58
2022/02/04 03:38:30;;;;;;;11.80;6.40;;;;;;;-6.26;88.78;140758.05;1772483;81;21046;-58
2022/02/04 03:40:57;;;;;;;11.68;5.78;;;;;;;-6.30;89.35;140748.19;1746899;82;21516;-60
2022/02/04 03:43:23;;;;;;;12.35;6.12;;;;;;;-6.27;89.49;140755.59;1753913;81;21453;-60
2022/02/04 03:45:50;;;;;;;12.68;6.37;;;;;;;-6.29;89.75;140750.64;1765116;80;20999;-56
2022/02/04 03:48:17;;;;;;;14.90;6.03;;;;;;;-6.34;89.97;140740.73;1756522;82;21520;-57
2022/02/04 03:50:44;;;;;;;12.40;6.45;;;;;;;-6.37;90.30;140733.33;1728551;82;21043;-57
2022/02/04 03:53:15;;;;;;;14.15;6.65;;;;;;;-6.36;90.52;140734.56;1728546;83;21025;-58
2022/02/04 03:55:42;;;;;;;;;;;;;;;-6.35;90.58;140738.28;1732665;82;21141;-57
2022/02/04 03:58:11;;;;;;;14.60;6.72;;;;;;;-6.31;90.54;140745.69;1730480;82;20152;-57
2022/02/04 04:00:39;;;;;;;12.13;6.50;;;;;;;-6.31;90.77;140746.91;1728490;82;21001;-59
2022/02/04 04:03:05;;;;;;;16.23;8.25;;;;;;;-6.30;90.86;140748.19;1729530;82;21454;-58
2022/02/04 04:05:37;;;;;;;12.82;6.70;;;;;;;-6.35;90.93;140738.28;1728725;82;21051;-61
2022/02/04 04:08:01;;;;;;;13.60;6.62;;;;;;;-6.29;91.19;140751.86;1732199;82;21502;-60
2022/02/04 04:10:37;;;;;;;14.95;7.92;;;;;;;-6.27;91.13;140755.59;1758465;80;20964;-57
2022/02/04 04:12:59;;;;;;;14.78;7.60;;;;;;;-6.32;91.15;140744.47;1757201;82;20988;-57
2022/02/04 04:15:26;;;;;;;13.75;7.50;;;;;;;-6.29;91.22;140750.64;1756443;82;21473;-58
2022/02/04 04:17:54;;;;;;;14.87;7.12;;;;;;;-6.24;91.25;140763.00;1756354;80;21019;-57
2022/02/04 04:20:23;;;;;;;16.45;7.25;;;;;;;-6.18;91.17;140777.81;1746341;82;21495;-58
2022/02/04 04:22:51;;;;;;;14.65;7.87;;;;;;;-6.16;91.06;140782.75;1728453;82;20992;-58
2022/02/04 04:25:19;;;;;;;14.75;7.20;;;;;;;-6.16;90.99;140782.75;1730437;82;21047;-58
2022/02/04 04:27:47;;;;;;;14.87;7.72;;;;;;;-6.16;90.89;140782.75;1728442;82;20991;-57
2022/02/04 04:30:18;;;;;;;15.45;8.50;;;;;;;-6.22;90.94;140767.94;1743284;80;20988;-58
2022/02/04 04:32:46;;;;;;;17.85;8.40;;;;;;;-6.23;91.04;140766.72;1728504;83;20964;-57
2022/02/04 04:35:16;;;;;;;14.28;7.33;;;;;;;-6.21;91.04;140770.41;1730462;80;20975;-58
2022/02/04 04:37:49;;;;;;;20.80;9.63;;;;;;;-6.26;91.01;140758.05;1728419;83;20951;-58
2022/02/04 05:29:21;;;;;;;26.73;10.55;;;;;;;-6.41;91.91;140722.20;1748948;81;20987;-56
2022/02/04 05:31:48;;;;;;;19.15;9.95;;;;;;;-6.36;91.72;140735.83;1767447;79;20967;-60
2022/02/04 05:34:17;;;;;;;20.15;10.10;;;;;;;-6.33;91.60;140742.00;1777538;79;20978;-58
2022/02/04 05:36:47;;;;;;;18.12;10.08;;;;;;;-6.40;91.38;140724.70;1777604;79;20970;-61
2022/02/04 05:39:15;;;;;;;19.92;9.98;;;;;;;-6.39;91.59;140728.38;1775413;80;21007;-61
2022/02/04 05:41:48;;;;;;;20.43;11.12;;;;;;;-6.32;91.57;140743.23;1762819;81;21472;-60
2022/02/04 05:44:14;;;;;;;;;;;;;;;-5.87;92.01;140851.97;1749170;82;21163;-58
2022/02/04 05:46:59;;;;;;;19.92;10.63;;;;;;;-5.17;90.95;141022.58;1754508;81;20103;-60
2022/02/04 05:49:24;;;;;;;18.17;10.08;;;;;;;-4.42;90.28;141204.50;1755874;82;20955;-58
2022/02/04 05:52:00;;;;;;;20.40;11.08;;;;;;;-3.62;87.34;141396.44;1758737;80;20977;-57
2022/02/04 05:54:27;;;;;;;22.87;10.18;;;;;;;-2.98;85.81;141552.55;1754787;81;21103;-58
2022/02/04 05:57:00;;;;;;;20.62;10.65;;;;;;;-2.20;83.20;141741.06;1755346;82;21424;-56
2022/02/04 06:02:09;;;;;;;19.50;11.03;;;;;;;-1.00;77.95;142032.72;1758839;80;21433;-58
2022/02/04 06:04:37;;;;;;;19.42;10.43;;;;;;;-0.18;76.42;142230.23;1757370;80;21091;-56
2022/02/04 06:07:13;;;;;;;21.85;10.78;;;;;;;0.85;72.40;142481.41;1785662;80;20975;-60
2022/02/04 06:23:01;;;;;;;17.35;10.50;;;;;;;3.78;55.54;143193.84;1760179;80;21587;-58
2022/02/04 06:25:28;;;;;;;19.85;10.98;;;;;;;3.96;53.93;143238.72;1756960;81;21625;-60
2022/02/04 06:27:55;;;;;;;18.82;10.65;;;;;;;4.07;52.99;143264.91;1759320;80;20976;-58
2022/02/04 06:30:21;;;;;;;18.20;10.25;;;;;;;4.49;52.09;143367.25;1761837;81;20981;-60
2022/02/04 06:32:50;;;;;;;18.92;11.55;;;;;;;4.68;51.44;143413.41;1763312;80;21401;-60
2022/02/04 06:35:16;;;;;;;17.20;10.38;;;;;;;5.11;50.41;143518.27;1756742;82;21406;-59
2022/02/04 06:37:43;;;;;;;19.17;10.98;;;;;;;5.67;49.49;143655.63;1756701;82;21002;-61
2022/02/04 06:40:10;;;;;;;17.40;10.95;;;;;;;6.20;48.26;143785.62;1756669;82;21002;-60
2022/02/04 06:42:37;;;;;;;16.65;10.15;;;;;;;6.79;47.06;143928.13;1763984;80;21453;-59
2022/02/04 06:45:08;;;;;;;17.50;10.98;;;;;;;7.73;45.44;144158.28;1779834;80;21002;-59
2022/02/04 06:47:34;;;;;;;17.15;10.55;;;;;;;8.05;40.79;144237.14;1787458;80;21430;-57
2022/02/04 06:50:01;;;;;;;16.15;10.20;;;;;;;7.72;41.59;144155.80;1787724;80;21407;-59
2022/02/04 06:52:27;;;;;;;15.65;9.98;;;;;;;8.13;40.11;144257.16;1787107;80;20964;-60
2022/02/04 06:54:54;;;;;;;15.25;9.95;;;;;;;8.25;39.54;144285.97;1786743;80;20980;-58
2022/02/04 06:57:21;;;;;;;17.27;10.48;;;;;;;7.93;39.01;144207.09;1787657;80;20904;-58
2022/02/04 06:59:49;;;;;;;18.45;10.68;;;;;;;7.54;39.54;144113.25;1787731;80;20944;-59
2022/02/04 07:02:16;;;;;;;15.50;10.18;;;;;;;7.60;39.51;144128.25;1787770;80;21438;-58
2022/02/04 07:04:43;;;;;;;18.27;11.25;;;;;;;7.63;39.11;144133.25;1787955;80;20959;-58
2022/02/04 07:07:10;;;;;;;18.80;11.97;;;;;;;7.21;39.55;144030.70;1787540;80;21042;-59
2022/02/04 07:09:58;;;;;;;15.00;10.28;;;;;;;7.44;40.14;144086.98;1786870;80;21007;-58
2022/02/04 07:15:02;;;;;;;19.48;11.03;;;;;;;8.52;37.80;144352.34;1787483;80;21131;-59
2022/02/04 07:17:20;;;;;;;15.87;10.40;;;;;;;9.26;36.48;144534.00;1783152;80;20932;-59
2022/02/04 07:19:46;;;;;;;20.23;13.62;;;;;;;9.26;36.48;144534.00;1786144;80;21809;-58
2022/02/04 07:22:20;;;;;;;19.55;12.45;;;;;;;9.52;36.48;144596.64;1787769;80;20948;-57
2022/02/04 07:24:53;;;;;;;19.45;12.93;;;;;;;10.16;35.19;144754.56;1787752;80;20940;-58
2022/02/04 07:27:20;;;;;;;19.92;12.75;;;;;;;10.84;34.77;144921.44;1787799;80;20944;-59
2022/02/04 07:29:49;;;;;;;19.82;13.48;;;;;;;11.78;33.43;145151.09;1787715;80;20948;-59
2022/02/04 07:32:23;;;;;;;17.82;12.20;;;;;;;12.48;31.61;145321.92;1787722;80;21540;-59
2022/02/04 07:35:01;;;;;;;15.55;10.80;;;;;;;12.12;31.53;145235.25;1786466;80;20983;-58
2022/02/04 07:42:45;;;;;;;16.50;12.25;;;;;;;10.86;32.79;144925.17;1697398;83;21011;-59
2022/02/04 07:45:12;;;;;;;17.30;12.37;;;;;;;11.31;31.94;145035.59;1690913;84;21557;-58
2022/02/04 07:47:39;;;;;;;19.73;12.85;;;;;;;11.79;31.78;145153.59;1700171;81;21074;-58
2022/02/04 07:50:06;;;;;;;18.07;12.18;;;;;;;11.90;31.50;145180.00;1729515;82;20979;-58
2022/02/04 07:52:34;;;;;;;18.55;12.07;;;;;;;12.08;31.28;145223.94;1733246;81;20983;-58
2022/02/04 07:55:02;;;;;;;18.92;12.80;;;;;;;12.36;31.17;145294.31;1758499;81;20963;-58
2022/02/04 07:57:29;;;;;;;18.15;12.35;;;;;;;12.80;30.58;145402.33;1737573;81;20976;-58
2022/02/04 08:00:02;;;;;;;17.32;12.60;;;;;;;12.95;30.16;145437.48;1736633;81;21102;-58
2022/02/04 08:02:25;;;;;;;19.20;11.45;;;;;;;12.96;29.88;145441.28;1759483;81;21003;-58
2022/02/04 08:04:53;;;;;;;15.40;11.05;;;;;;;12.75;29.71;145388.53;1737805;81;21011;-58
2022/02/04 08:07:19;;;;;;;17.80;12.28;;;;;;;12.24;29.64;145264.16;1745183;81;20960;-59
2022/02/04 08:12:42;;;;;;;18.55;12.73;;;;;;;11.82;30.52;145161.12;1757511;81;20985;-58
2022/02/04 08:15:21;;;;;;;19.52;13.43;;;;;;;12.03;30.59;145211.39;1720311;83;21045;-59
2022/02/04 08:18:02;;;;;;;16.90;11.80;;;;;;;12.80;29.79;145402.33;1715587;82;21446;-58
2022/02/04 08:20:33;;;;;;;18.65;12.25;;;;;;;13.46;29.26;145563.27;1695902;84;20980;-59
2022/02/04 08:25:52;;;;;;;20.43;13.40;;;;;;;13.72;28.29;145627.36;1717020;83;21521;-59
2022/02/04 08:34:00;;;;;;;17.52;11.85;;;;;;;12.03;29.84;145211.39;1698660;83;21472;-58
2022/02/04 08:47:00;;;;;;;19.12;12.50;;;;;;;9.19;33.19;144515.20;1716458;82;20996;-57
2022/02/04 08:54:29;;;;;;;21.80;12.33;;;;;;;8.12;34.80;144253.44;1728592;82;20975;-56
2022/02/04 08:57:09;;;;;;;22.32;12.58;;;;;;;7.73;35.72;144158.28;1743217;82;21505;-59
2022/02/04 09:02:09;;;;;;;18.07;11.20;;;;;;;7.80;36.01;144175.81;1713356;82;21039;-56
2022/02/04 09:04:40;;;;;;;20.12;11.22;;;;;;;7.85;36.19;144188.33;1743498;82;21046;-56
2022/02/04 09:07:07;;;;;;;16.55;10.78;;;;;;;7.46;35.93;144093.23;1675493;85;21083;-59
2022/02/04 09:09:49;;;;;;;18.32;10.45;;;;;;;6.92;36.49;143961.92;1700130;84;21103;-56
2022/02/04 09:16:50;;;;;;;17.05;10.15;;;;;;;6.32;37.51;143813.16;1712191;82;21034;-56
2022/02/04 09:17:46;;;;;;;17.52;10.05;;;;;;;5.02;39.86;143495.81;1731316;82;21469;-56
2022/02/04 09:25:09;;;;;;;18.30;9.45;;;;;;;3.34;41.90;143086.63;1712035;81;21003;-56
2022/02/04 09:27:37;;;;;;;17.32;9.98;;;;;;;2.97;43.10;142998.09;1730592;81;21030;-57
2022/02/04 09:30:08;;;;;;;16.55;8.45;;;;;;;2.44;44.04;142867.27;1715577;81;21018;-56
2022/02/04 09:32:36;;;;;;;18.17;10.13;;;;;;;1.83;44.95;142720.36;1750877;81;21018;-56
2022/02/04 09:35:06;;;;;;;15.15;8.70;;;;;;;1.26;45.97;142580.92;1735241;81;21074;-58
2022/02/04 09:37:33;;;;;;;19.02;9.10;;;;;;;0.95;46.99;142506.28;1751477;81;21418;-57
2022/02/04 09:40:00;;;;;;;14.65;8.10;;;;;;;0.84;47.84;142478.89;1745798;81;20994;-55
2022/02/04 09:42:28;;;;;;;15.00;8.35;;;;;;;0.59;48.20;142417.98;1738885;81;21438;-55
2022/02/04 09:44:55;;;;;;;16.52;8.18;;;;;;;0.35;48.85;142360.75;1742695;81;21074;-56
2022/02/04 09:47:25;;;;;;;22.25;8.75;;;;;;;0.12;49.05;142304.81;1744003;81;20969;-56
2022/02/04 09:49:58;;;;;;;18.67;8.65;;;;;;;-0.07;49.79;142258.84;1727970;82;21060;-56
2022/02/04 10:09:04;;;;;;;12.40;6.62;;;;;;;-1.23;52.60;141975.59;1669875;83;21096;-55
2022/02/04 10:14:24;;;;;;;14.15;7.53;;;;;;;-1.23;53.78;141976.84;1739785;82;20996;-55
2022/02/04 10:17:24;;;;;;;15.75;7.72;;;;;;;-1.33;54.01;141953.23;1738229;82;21056;-56
2022/02/04 10:19:29;;;;;;;12.20;7.65;;;;;;;-1.32;54.33;141955.75;1746808;81;21061;-56
2022/02/04 10:21:59;;;;;;;12.37;6.72;;;;;;;-1.21;54.33;141981.81;1736992;82;20987;-58
2022/02/04 10:24:27;;;;;;;12.30;7.42;;;;;;;-1.20;54.50;141983.05;1734311;81;21078;-57
2022/02/04 10:27:19;;;;;;;13.58;7.90;;;;;;;-1.22;54.09;141978.06;1726138;82;21010;-57
2022/02/04 10:30:03;;;;;;;17.42;8.05;;;;;;;-1.08;54.05;142012.84;1735891;82;21509;-55
2022/02/04 10:32:40;;;;;;;11.75;6.83;;;;;;;-0.95;53.89;142043.89;1737763;82;21114;-56
2022/02/04 10:35:29;;;;;;;11.85;7.03;;;;;;;-0.89;53.50;142058.78;1720218;82;21466;-56
2022/02/04 10:38:21;;;;;;;14.05;7.40;;;;;;;-0.78;52.80;142086.13;1711935;82;21073;-55
2022/02/04 10:46:14;;;;;;;15.05;7.78;;;;;;;-0.67;53.18;142113.44;1709876;84;21102;-55
2022/02/04 10:54:37;;;;;;;14.63;8.20;;;;;;;-0.56;52.95;142139.56;1698923;83;21035;-62
2022/02/04 11:04:35;;;;;;;18.52;7.95;;;;;;;0.04;50.96;142283.69;1728693;83;21204;-66
2022/02/04 11:09:50;;;;;;;13.40;6.33;;;;;;;-0.10;50.76;142250.11;1697682;84;21033;-57
2022/02/04 11:21:45;;;;;;;12.80;7.17;;;;;;;-0.10;50.48;142251.39;1727199;83;20979;-55
2022/02/04 11:31:38;;;;;;;14.60;8.83;;;;;;;0.49;49.77;142394.34;1672609;84;21528;-57
2022/02/04 11:43:43;;;;;;;16.25;8.38;;;;;;;0.49;50.39;142393.11;1712906;83;20995;-55
2022/02/04 11:54:33;;;;;;;15.25;8.73;;;;;;;1.17;49.12;142559.80;1756580;82;21067;-55
2022/02/04 11:57:08;;;;;;;13.95;7.42;;;;;;;1.14;49.04;142551.06;1756669;82;20996;-55
2022/02/04 11:59:53;;;;;;;16.07;8.73;;;;;;;1.08;48.82;142537.38;1756773;80;21014;-60
2022/02/04 12:02:34;;;;;;;15.03;7.65;;;;;;;1.01;48.86;142521.19;1773620;80;21446;-64
2022/02/04 12:05:21;;;;;;;16.42;8.23;;;;;;;0.99;49.33;142516.25;1787635;80;20972;-69
2022/02/04 12:07:51;;;;;;;13.05;7.20;;;;;;;1.22;49.06;142570.95;1787578;80;21007;-61
2022/02/04 12:10:22;;;;;;;13.00;7.17;;;;;;;1.32;48.36;142595.84;1697817;83;21062;-56
2022/02/04 12:13:10;;;;;;;15.03;7.62;;;;;;;1.18;48.25;142561.03;1785565;80;20952;-58
2022/02/04 12:15:49;;;;;;;15.18;8.38;;;;;;;1.14;48.49;142551.06;1756553;82;20974;-58
2022/02/04 12:18:21;;;;;;;15.95;8.35;;;;;;;1.24;48.35;142577.19;1727549;82;20978;-56
2022/02/04 12:20:59;;;;;;;15.15;7.58;;;;;;;1.37;48.26;142608.28;1766843;80;20964;-58
2022/02/04 12:23:36;;;;;;;15.98;9.48;;;;;;;1.56;47.77;142654.36;1790630;80;21515;-58
2022/02/04 12:26:12;;;;;;;15.43;8.05;;;;;;;1.75;47.80;142700.41;1790604;80;21043;-57
2022/02/04 12:28:47;;;;;;;13.10;7.60;;;;;;;1.68;47.24;142682.97;1790379;79;21019;-60
2022/02/04 12:31:27;;;;;;;13.83;8.08;;;;;;;1.52;47.59;142645.63;1783434;80;20999;-58
2022/02/04 12:34:11;;;;;;;12.30;6.83;;;;;;;1.71;47.41;142690.47;1787655;80;20996;-58
2022/02/04 12:36:43;;;;;;;15.90;6.53;;;;;;;1.72;46.36;142692.94;1787394;80;20963;-57
2022/02/04 12:39:16;;;;;;;15.53;8.10;;;;;;;1.68;45.55;142684.25;1761755;80;21006;-63
2022/02/04 12:42:01;;;;;;;14.45;7.78;;;;;;;1.59;46.30;142660.58;1763214;80;20948;-63
2022/02/04 12:44:35;;;;;;;16.75;7.78;;;;;;;1.49;46.82;142638.16;1762758;80;20987;-63
2022/02/04 12:47:06;;;;;;;13.62;7.70;;;;;;;1.37;47.37;142608.28;1784985;80;21465;-65
2022/02/04 12:49:37;;;;;;;13.58;7.37;;;;;;;1.25;47.61;142579.69;1740567;80;20969;-63
2022/02/04 12:55:08;;;;;;;12.55;7.35;;;;;;;1.02;48.02;142523.70;1776128;80;21472;-59
2022/02/04 12:57:39;;;;;;;12.60;7.65;;;;;;;1.02;48.19;142523.70;1795464;80;20941;-56
2022/02/04 13:03:05;;;;;;;12.78;7.35;;;;;;;1.22;47.89;142572.23;1755300;80;20950;-57
2022/02/04 13:11:01;;;;;;;16.20;8.25;;;;;;;1.16;48.10;142557.28;1766987;80;21001;-57
2022/02/04 13:13:40;;;;;;;14.63;8.63;;;;;;;1.20;48.03;142566.02;1792866;80;20952;-59
2022/02/04 13:16:01;;;;;;;13.13;7.10;;;;;;;1.22;47.89;142570.95;1779090;80;21464;-61
2022/02/04 13:18:29;;;;;;;14.98;7.53;;;;;;;1.33;47.60;142597.13;1771126;80;20935;-58
2022/02/04 13:20:57;;;;;;;13.53;7.60;;;;;;;1.20;47.54;142566.02;1766836;80;21449;-57
2022/02/04 13:23:31;;;;;;;12.50;7.42;;;;;;;1.02;47.66;142523.70;1782186;80;20940;-59
2022/02/04 13:26:01;;;;;;;15.10;7.28;;;;;;;0.94;47.92;142502.53;1796244;80;20964;-58
2022/02/04 13:28:43;;;;;;;22.02;10.98;;;;;;;0.89;47.97;142490.09;1789276;80;21932;-60
2022/02/04 13:31:20;;;;;;;30.48;14.75;;;;;;;0.85;48.11;142481.41;1796316;79;20963;-57
2022/02/04 13:33:48;;;;;;;41.77;19.85;;;;;;;0.91;47.72;142495.08;1794044;80;20987;-62
2022/02/04 13:36:29;;;;;;;14.47;8.28;;;;;;;0.88;47.79;142488.86;1796208;80;20971;-58
2022/02/04 13:39:08;;;;;;;10.72;6.00;;;;;;;0.86;47.64;142485.11;1791769;79;21470;-55
2022/02/04 13:44:41;;;;;;;13.90;8.25;;;;;;;0.79;47.80;142466.45;1771322;80;20997;-60
2022/02/04 13:52:53;;;;;;;10.78;6.28;;;;;;;1.06;47.94;142533.63;1766674;80;20966;-56
2022/02/04 14:03:35;;;;;;;11.73;5.87;;;;;;;1.11;47.48;142543.59;1765207;80;21468;-56
2022/02/04 14:06:10;;;;;;;15.00;7.03;;;;;;;0.80;47.69;142470.19;1792604;80;21007;-64
2022/02/04 14:09:05;;;;;;;12.95;6.30;;;;;;;0.65;47.98;142434.13;1734704;83;21070;-56
2022/02/04 14:11:08;;;;;;;12.78;5.97;;;;;;;0.60;48.14;142420.45;1732372;80;21017;-55
2022/02/04 14:13:35;;;;;;;10.55;6.35;;;;;;;0.58;48.07;142416.70;1765286;80;20981;-56
2022/02/04 14:16:08;;;;;;;11.90;6.45;;;;;;;0.55;47.99;142409.25;1785990;80;20943;-58
2022/02/04 14:18:36;;;;;;;11.25;6.10;;;;;;;0.40;48.32;142371.95;1796469;80;21457;-58
2022/02/04 14:21:04;;;;;;;10.90;5.92;;;;;;;0.29;48.46;142345.84;1793667;80;20983;-60
2022/02/04 14:23:31;;;;;;;10.58;5.47;;;;;;;0.20;48.63;142324.73;1697267;84;21556;-56
2022/02/04 14:26:09;;;;;;;12.53;6.00;;;;;;;0.23;48.67;142329.67;1713693;83;21075;-55
2022/02/04 14:31:18;;;;;;;11.05;5.58;;;;;;;-0.09;49.14;142252.63;1740553;82;21013;-58
2022/02/04 14:36:33;;;;;;;14.98;6.70;;;;;;;-0.35;49.81;142189.25;1732585;82;21034;-55
2022/02/04 14:52:24;;;;;;;13.90;8.58;;;;;;;-0.98;51.03;142036.45;1718524;83;21027;-57
2022/02/04 14:58:36;;;;;;;15.15;8.00;;;;;;;-1.14;51.43;141999.20;1730613;83;21128;-57
2022/02/04 15:02:45;;;;;;;14.33;6.85;;;;;;;-1.41;52.38;141932.16;1784900;80;21030;-58
2022/02/04 15:05:14;;;;;;;12.93;6.60;;;;;;;-1.47;52.62;141917.28;1784638;80;21019;-57
2022/02/04 15:07:41;;;;;;;17.57;8.13;;;;;;;-1.52;52.79;141904.88;1787296;80;21446;-58
2022/02/04 15:10:14;;;;;;;14.23;7.25;;;;;;;-1.56;52.98;141897.38;1787117;80;20951;-64
2022/02/04 15:12:37;;;;;;;17.80;8.48;;;;;;;-1.64;53.27;141877.53;1765513;80;21518;-63
2022/02/04 15:15:04;;;;;;;13.65;7.62;;;;;;;-1.69;53.43;141865.13;1725354;82;20970;-55
2022/02/04 15:17:31;;;;;;;16.20;8.05;;;;;;;-1.67;53.51;141868.87;1750699;82;21079;-56
2022/02/04 15:19:58;;;;;;;20.72;9.98;;;;;;;-1.69;53.64;141865.13;1754162;81;20920;-56
2022/02/04 15:22:27;;;;;;;21.48;10.18;;;;;;;-1.73;53.76;141853.94;1756795;82;21140;-57
2022/02/04 15:24:58;;;;;;;17.95;8.80;;;;;;;-1.75;53.94;141850.25;1753387;82;21466;-56
2022/02/04 15:27:22;;;;;;;15.45;8.13;;;;;;;-1.75;54.02;141850.25;1719984;83;21470;-55
2022/02/04 15:29:52;;;;;;;18.40;9.25;;;;;;;-1.77;53.94;141845.28;1720547;83;21080;-55
2022/02/04 15:32:18;;;;;;;21.97;9.33;;;;;;;-1.80;54.04;141837.84;1756701;82;20967;-57
2022/02/04 15:34:45;;;;;;;16.67;8.45;;;;;;;-1.81;54.28;141835.33;1742522;82;21429;-56
2022/02/04 15:37:12;;;;;;;19.30;10.38;;;;;;;-1.80;54.17;141837.84;1744395;81;20955;-59
2022/02/04 15:39:39;;;;;;;21.23;9.58;;;;;;;-1.79;54.35;141840.31;1769305;81;21492;-55
2022/02/04 15:42:10;;;;;;;29.80;11.57;;;;;;;-1.80;54.38;141839.08;1727587;81;21012;-59
2022/02/04 15:45:12;;;;;;;21.77;10.95;;;;;;;-1.81;54.47;141835.33;1708032;83;21451;-57
2022/02/04 15:47:28;;;;;;;24.12;13.25;;;;;;;-1.80;54.42;141837.84;1696621;84;21043;-55
2022/02/04 15:50:05;;;;;;;25.43;14.30;;;;;;;-1.83;54.48;141831.64;1706982;84;21039;-59
2022/02/04 15:57:54;;;;;;;31.57;16.93;;;;;;;-1.88;54.75;141817.95;1691091;84;21526;-58
2022/02/04 16:00:37;;;;;;;26.60;14.63;;;;;;;-1.89;54.77;141816.72;1685598;83;21050;-56
2022/02/04 16:03:17;;;;;;;24.35;13.40;;;;;;;-1.89;54.91;141816.72;1719446;83;21008;-57
2022/02/04 16:05:30;;;;;;;26.87;14.33;;;;;;;-1.90;54.87;141813.03;1722921;83;21000;-57
2022/02/04 16:07:57;;;;;;;26.17;12.50;;;;;;;-1.93;54.97;141805.55;1718304;83;21039;-60
2022/02/04 16:10:47;;;;;;;20.40;11.35;;;;;;;-1.94;55.04;141803.08;1726614;83;21008;-57
2022/02/04 16:13:24;;;;;;;21.33;10.53;;;;;;;-1.98;55.15;141795.66;1704123;83;21012;-62
2022/02/04 16:15:54;;;;;;;24.27;12.93;;;;;;;-1.99;55.24;141793.14;1767035;80;20999;-60
2022/02/04 16:18:16;;;;;;;23.87;13.62;;;;;;;-1.99;55.36;141791.91;1784154;80;21147;-59
2022/02/04 16:26:22;;;;;;;14.28;8.73;;;;;;;-2.03;55.69;141783.23;1784231;80;20987;-61
2022/02/04 16:28:38;;;;;;;21.20;10.78;;;;;;;-2.03;55.66;141783.23;1780697;79;21477;-57
2022/02/04 16:31:11;;;;;;;19.48;10.32;;;;;;;-2.06;55.80;141775.81;1790233;80;21461;-58
2022/02/04 16:33:38;;;;;;;18.95;9.05;;;;;;;-2.05;55.90;141777.03;1775315;80;20982;-55
2022/02/04 16:36:11;;;;;;;19.90;9.50;;;;;;;-2.07;55.88;141773.30;1758139;80;20975;-54
2022/02/04 16:38:34;;;;;;;13.78;7.33;;;;;;;-2.08;56.00;141770.84;1771507;80;21026;-55
2022/02/04 16:41:06;;;;;;;19.15;9.43;;;;;;;-2.08;56.00;141769.61;1787068;80;20964;-56
2022/02/04 16:43:30;;;;;;;18.17;9.03;;;;;;;-2.07;56.03;141773.30;1769642;80;20955;-60
2022/02/04 16:45:57;;;;;;;17.20;8.05;;;;;;;-2.07;56.04;141773.30;1783943;80;21433;-57
2022/02/04 16:48:24;;;;;;;15.25;8.15;;;;;;;-2.08;56.02;141770.84;1786881;80;21434;-57
2022/02/04 16:50:50;;;;;;;17.82;7.55;;;;;;;-2.08;55.86;141769.61;1746337;80;21002;-57
2022/02/04 16:53:17;;;;;;;16.32;8.95;;;;;;;-2.09;55.83;141768.33;1719972;80;20998;-58
2022/02/04 16:55:44;;;;;;;18.15;7.55;;;;;;;-2.09;55.78;141768.33;1759442;80;21006;-55
2022/02/04 16:58:11;;;;;;;17.98;8.40;;;;;;;-2.11;55.77;141762.12;1755948;82;21018;-56
2022/02/04 17:00:38;;;;;;;17.62;8.58;;;;;;;-2.11;55.89;141763.41;1755845;81;21022;-55
2022/02/04 17:03:10;;;;;;;16.70;8.85;;;;;;;-2.10;56.03;141765.86;1755909;81;21033;-55
2022/02/04 17:05:51;;;;;;;17.82;8.20;;;;;;;-2.10;55.99;141765.86;1779414;80;20987;-56
2022/02/04 17:08:10;;;;;;;18.92;9.60;;;;;;;-2.11;55.85;141763.41;1760509;80;21440;-57